Aérodrome :
LOGIN :

S'inscrire | Disclaimer

   EN    FR    IT 

 










Légende :    VFR   VFR Marginal   IFR   IFR Intensif   IFR Très Intensif
Visi : 
Plafond : 
>= 8 km
>= 3000ft
5 à 8 km
1000 à 3000 ft
1500m à 5 km
500 à 1000 ft
800 à 1500m
200 à 500 ft
< 800m
< 200 ft
Symboles :   Orages  Brouillard  Fortes neiges  Fortes précipitations  Vent > 20 kt
SIGMETs :   Divers  Orages  Givrage  Turbulence  Onde Orograph.  Cendres Volcan.






- Altitude de l'aérodrome : 13 ft


LTFA - Kakl?ç

DERNIER METAR :
  • 270907Z 25012KT 9999 -SHRA FEW020 SCT030 BKN090 14/12 Q1014 RMK RWY17 23014KT

METARs EXPIRÉS :
  • 270736Z 29013KT 7000 -SHRA FEW010 SCT030 BKN080 14/13 Q1013 RMK RWY17 26012KT
  • 270714Z 28013KT 4000 -SHRA BR FEW010 SCT030 BKN080 14/13 Q1013 RMK RWY17 27014KT

TAF TAF LTFA
Valide du 27 à 09h jusqu'au 27 à 18h UTC


270740Z 2709/2718 32012KT 9999 FEW020 SCT035 BKN100
TEMPO 2709/2712 -SHRA



MET'MAP, la Météo Aéronautique d'un coup d'oeil ! - Copyright ORBIFLY Décembre 2007 - Disclaimer

ORBIFLY MET'MAP TEAM :

Programmation & Développement : Alexandra Zaïnal
Sur une idée originale de : Baudouin d'Aumeries
Assistance à la programmation : Marc-Olivier Méhu
Soutien technique & logistique : Manuel Goepfert

Contact : metmap@orbifly.com




SOURCES & CREDITS :

   NOAA